LVIRU SADF-SULS
Flight info
| Callsign | LVIRU |
|---|---|
| Flight time | 0h 53m |
| Altitude | 17000 |
| Route | DCT DORVO A305 TOKAM CRO DCT LDS |
| Aircraft | TBM8/L-S/C |
Departure
| Time | 2026-04-26 21:15 |
|---|---|
| Airport | San Fernando Airport (SADF) |
Arrival
| Time | 2026-04-26 22:08 |
|---|---|
| Airport | Capitan Corbeta CA Curbelo International Airport (SULS) |
| Time | Latitude | Longitude | Altitude | Speed | Heading |
|---|---|---|---|---|---|
| 2026-04-26 20:54 | -34.45578 | -58.58435 | 22 ft | 0 kts | 197° |
| 2026-04-26 21:07 | -34.45579 | -58.58436 | 22 ft | 1 kts | 208° |
| 2026-04-26 21:07 | -34.45559 | -58.58451 | 22 ft | 10 kts | 17° |
| 2026-04-26 21:08 | -34.45488 | -58.58349 | 22 ft | 22 kts | 68° |
| 2026-04-26 21:08 | -34.45405 | -58.58148 | 22 ft | 29 kts | 65° |
| 2026-04-26 21:08 | -34.45319 | -58.57986 | 22 ft | 10 kts | 345° |
| 2026-04-26 21:08 | -34.45263 | -58.58021 | 22 ft | 8 kts | 326° |
| 2026-04-26 21:09 | -34.45222 | -58.58049 | 22 ft | 8 kts | 330° |
| 2026-04-26 21:09 | -34.45127 | -58.58116 | 22 ft | 24 kts | 329° |
| 2026-04-26 21:09 | -34.44970 | -58.58231 | 22 ft | 25 kts | 332° |
| 2026-04-26 21:09 | -34.44903 | -58.58280 | 22 ft | 2 kts | 323° |
| 2026-04-26 21:12 | -34.44867 | -58.58322 | 23 ft | 14 kts | 310° |
| 2026-04-26 21:12 | -34.44849 | -58.58359 | 24 ft | 2 kts | 290° |
| 2026-04-26 21:13 | -34.44853 | -58.58379 | 22 ft | 0 kts | 223° |
| 2026-04-26 21:13 | -34.44873 | -58.58404 | 22 ft | 24 kts | 225° |
| 2026-04-26 21:14 | -34.45151 | -58.58729 | 23 ft | 84 kts | 224° |
| 2026-04-26 21:14 | -34.45687 | -58.59274 | 140 ft | 117 kts | 220° |
| 2026-04-26 21:14 | -34.46403 | -58.59943 | 335 ft | 140 kts | 227° |
| 2026-04-26 21:14 | -34.47132 | -58.60795 | 550 ft | 154 kts | 226° |
| 2026-04-26 21:15 | -34.47966 | -58.61686 | 766 ft | 165 kts | 224° |
| 2026-04-26 21:15 | -34.48865 | -58.62590 | 973 ft | 170 kts | 222° |
| 2026-04-26 21:15 | -34.49569 | -58.63706 | 1179 ft | 170 kts | 251° |
| 2026-04-26 21:15 | -34.49455 | -58.65148 | 1374 ft | 183 kts | 289° |
| 2026-04-26 21:16 | -34.48497 | -58.66247 | 1571 ft | 203 kts | 326° |
| 2026-04-26 21:16 | -34.47051 | -58.66461 | 1765 ft | 222 kts | 3° |
| 2026-04-26 21:16 | -34.45634 | -58.65630 | 1922 ft | 235 kts | 35° |
| 2026-04-26 21:16 | -34.44432 | -58.64225 | 1941 ft | 245 kts | 47° |
| 2026-04-26 21:17 | -34.43296 | -58.62658 | 1939 ft | 248 kts | 47° |
| 2026-04-26 21:17 | -34.42220 | -58.61012 | 1949 ft | 250 kts | 53° |
| 2026-04-26 21:17 | -34.41227 | -58.59309 | 1946 ft | 250 kts | 55° |
| 2026-04-26 21:17 | -34.40067 | -58.57752 | 1945 ft | 248 kts | 40° |
| 2026-04-26 21:18 | -34.38790 | -58.56355 | 2082 ft | 244 kts | 39° |
| 2026-04-26 21:18 | -34.37599 | -58.54916 | 2274 ft | 242 kts | 51° |
| 2026-04-26 21:18 | -34.36712 | -58.53181 | 2474 ft | 242 kts | 59° |
| 2026-04-26 21:18 | -34.36015 | -58.51344 | 2659 ft | 240 kts | 80° |
| 2026-04-26 21:19 | -34.36038 | -58.49381 | 2844 ft | 230 kts | 112° |
| 2026-04-26 21:19 | -34.36675 | -58.47667 | 3128 ft | 219 kts | 126° |
| 2026-04-26 21:19 | -34.37368 | -58.46055 | 3437 ft | 218 kts | 124° |
| 2026-04-26 21:19 | -34.37998 | -58.44378 | 3744 ft | 218 kts | 121° |
| 2026-04-26 21:20 | -34.38607 | -58.42691 | 4055 ft | 218 kts | 122° |
| 2026-04-26 21:20 | -34.39226 | -58.41009 | 4367 ft | 219 kts | 122° |
| 2026-04-26 21:20 | -34.39851 | -58.39316 | 4685 ft | 220 kts | 122° |
| 2026-04-26 21:20 | -34.40416 | -58.37599 | 4927 ft | 230 kts | 110° |
| 2026-04-26 21:21 | -34.40636 | -58.35603 | 4935 ft | 245 kts | 102° |
| 2026-04-26 21:21 | -34.40897 | -58.33537 | 4943 ft | 251 kts | 105° |
| 2026-04-26 21:21 | -34.41099 | -58.32130 | 5029 ft | 249 kts | 105° |
| 2026-04-26 21:21 | -34.41479 | -58.29412 | 5304 ft | 245 kts | 105° |
| 2026-04-26 21:22 | -34.41660 | -58.28057 | 5441 ft | 245 kts | 105° |
| 2026-04-26 21:22 | -34.41925 | -58.26026 | 5649 ft | 244 kts | 105° |
| 2026-04-26 21:22 | -34.42194 | -58.23993 | 5858 ft | 244 kts | 105° |
| 2026-04-26 21:23 | -34.42721 | -58.19939 | 6274 ft | 245 kts | 105° |
| 2026-04-26 21:23 | -34.42981 | -58.17894 | 6477 ft | 245 kts | 105° |
| 2026-04-26 21:23 | -34.43240 | -58.15846 | 6673 ft | 246 kts | 105° |
| 2026-04-26 21:23 | -34.43499 | -58.13791 | 6874 ft | 246 kts | 105° |
| 2026-04-26 21:24 | -34.43759 | -58.11737 | 7073 ft | 247 kts | 105° |
| 2026-04-26 21:24 | -34.44254 | -58.09825 | 7237 ft | 234 kts | 131° |
| 2026-04-26 21:24 | -34.45280 | -58.08345 | 7437 ft | 228 kts | 142° |
| 2026-04-26 21:24 | -34.46247 | -58.06775 | 7646 ft | 236 kts | 130° |
| 2026-04-26 21:25 | -34.47031 | -58.05003 | 7856 ft | 239 kts | 125° |
| 2026-04-26 21:25 | -34.47811 | -58.03216 | 8064 ft | 239 kts | 127° |
| 2026-04-26 21:25 | -34.48637 | -58.01461 | 8276 ft | 239 kts | 128° |
| 2026-04-26 21:25 | -34.49464 | -57.99707 | 8486 ft | 240 kts | 128° |
| 2026-04-26 21:26 | -34.50276 | -57.97955 | 8698 ft | 241 kts | 127° |
| 2026-04-26 21:26 | -34.51100 | -57.96173 | 8906 ft | 242 kts | 127° |
| 2026-04-26 21:26 | -34.51932 | -57.94383 | 9121 ft | 243 kts | 127° |
| 2026-04-26 21:26 | -34.52766 | -57.92586 | 9340 ft | 244 kts | 127° |
| 2026-04-26 21:27 | -34.53591 | -57.90806 | 9552 ft | 245 kts | 127° |
| 2026-04-26 21:27 | -34.54429 | -57.88995 | 9769 ft | 246 kts | 127° |
| 2026-04-26 21:27 | -34.55272 | -57.87176 | 9966 ft | 247 kts | 127° |
| 2026-04-26 21:27 | -34.56118 | -57.85349 | 10170 ft | 248 kts | 127° |
| 2026-04-26 21:28 | -34.56954 | -57.83543 | 10366 ft | 249 kts | 127° |
| 2026-04-26 21:28 | -34.57805 | -57.81702 | 10567 ft | 250 kts | 127° |
| 2026-04-26 21:28 | -34.58658 | -57.79854 | 10767 ft | 252 kts | 127° |
| 2026-04-26 21:28 | -34.59520 | -57.77990 | 10973 ft | 253 kts | 127° |
| 2026-04-26 21:29 | -34.60374 | -57.76141 | 11176 ft | 254 kts | 127° |
| 2026-04-26 21:29 | -34.61241 | -57.74259 | 11387 ft | 255 kts | 127° |
| 2026-04-26 21:29 | -34.62099 | -57.72398 | 11592 ft | 255 kts | 127° |
| 2026-04-26 21:29 | -34.62970 | -57.70511 | 11805 ft | 256 kts | 127° |
| 2026-04-26 21:30 | -34.63843 | -57.68616 | 12011 ft | 257 kts | 127° |
| 2026-04-26 21:30 | -34.64715 | -57.66720 | 12226 ft | 257 kts | 127° |
| 2026-04-26 21:30 | -34.65592 | -57.64814 | 12439 ft | 258 kts | 127° |
| 2026-04-26 21:30 | -34.66471 | -57.62902 | 12657 ft | 259 kts | 127° |
| 2026-04-26 21:31 | -34.67339 | -57.61014 | 12873 ft | 259 kts | 127° |
| 2026-04-26 21:31 | -34.68220 | -57.59098 | 13084 ft | 260 kts | 126° |
| 2026-04-26 21:31 | -34.69102 | -57.57176 | 13306 ft | 260 kts | 126° |
| 2026-04-26 21:31 | -34.69985 | -57.55251 | 13529 ft | 261 kts | 126° |
| 2026-04-26 21:32 | -34.70870 | -57.53321 | 13745 ft | 261 kts | 127° |
| 2026-04-26 21:32 | -34.71595 | -57.51265 | 13935 ft | 271 kts | 109° |
| 2026-04-26 21:32 | -34.71839 | -57.48967 | 14135 ft | 275 kts | 99° |
| 2026-04-26 21:32 | -34.72025 | -57.46645 | 14325 ft | 277 kts | 100° |
| 2026-04-26 21:33 | -34.72229 | -57.44316 | 14521 ft | 279 kts | 100° |
| 2026-04-26 21:33 | -34.72430 | -57.41958 | 14719 ft | 281 kts | 99° |
| 2026-04-26 21:33 | -34.72623 | -57.39618 | 14914 ft | 283 kts | 99° |
| 2026-04-26 21:33 | -34.72823 | -57.37219 | 15113 ft | 286 kts | 100° |
| 2026-04-26 21:34 | -34.73026 | -57.34798 | 15313 ft | 289 kts | 100° |
| 2026-04-26 21:34 | -34.73229 | -57.32355 | 15517 ft | 291 kts | 100° |
| 2026-04-26 21:34 | -34.73434 | -57.29895 | 15722 ft | 294 kts | 100° |
| 2026-04-26 21:34 | -34.73640 | -57.27407 | 15928 ft | 297 kts | 100° |
| 2026-04-26 21:35 | -34.73848 | -57.24894 | 16134 ft | 299 kts | 99° |
| 2026-04-26 21:35 | -34.74054 | -57.22387 | 16337 ft | 302 kts | 100° |
| 2026-04-26 21:35 | -34.74265 | -57.19832 | 16548 ft | 304 kts | 100° |
| 2026-04-26 21:35 | -34.74476 | -57.17259 | 16757 ft | 307 kts | 100° |
| 2026-04-26 21:36 | -34.74690 | -57.14652 | 16864 ft | 314 kts | 100° |
| 2026-04-26 21:36 | -34.74912 | -57.11970 | 16874 ft | 323 kts | 99° |
| 2026-04-26 21:36 | -34.75133 | -57.09257 | 16879 ft | 329 kts | 99° |
| 2026-04-26 21:36 | -34.75358 | -57.06459 | 16885 ft | 334 kts | 99° |
| 2026-04-26 21:37 | -34.75586 | -57.03629 | 16880 ft | 337 kts | 99° |
| 2026-04-26 21:37 | -34.75817 | -57.00777 | 16874 ft | 339 kts | 99° |
| 2026-04-26 21:37 | -34.76048 | -56.97911 | 16870 ft | 341 kts | 99° |
| 2026-04-26 21:37 | -34.76276 | -56.95074 | 16874 ft | 342 kts | 99° |
| 2026-04-26 21:38 | -34.76506 | -56.92190 | 16867 ft | 342 kts | 99° |
| 2026-04-26 21:38 | -34.76736 | -56.89298 | 16867 ft | 343 kts | 99° |
| 2026-04-26 21:38 | -34.76966 | -56.86408 | 16868 ft | 343 kts | 99° |
| 2026-04-26 21:38 | -34.77195 | -56.83521 | 16860 ft | 343 kts | 99° |
| 2026-04-26 21:39 | -34.77423 | -56.80632 | 16860 ft | 343 kts | 99° |
| 2026-04-26 21:39 | -34.77648 | -56.77779 | 16860 ft | 343 kts | 98° |
| 2026-04-26 21:39 | -34.77875 | -56.74887 | 16857 ft | 343 kts | 98° |
| 2026-04-26 21:39 | -34.78101 | -56.71999 | 16851 ft | 343 kts | 98° |
| 2026-04-26 21:40 | -34.78254 | -56.69094 | 16849 ft | 343 kts | 96° |
| 2026-04-26 21:40 | -34.78410 | -56.66197 | 16849 ft | 343 kts | 97° |
| 2026-04-26 21:40 | -34.78581 | -56.63294 | 16842 ft | 343 kts | 97° |
| 2026-04-26 21:40 | -34.78736 | -56.60423 | 16839 ft | 344 kts | 96° |
| 2026-04-26 21:41 | -34.78883 | -56.57518 | 16835 ft | 344 kts | 96° |
| 2026-04-26 21:41 | -34.79035 | -56.54617 | 16835 ft | 344 kts | 96° |
| 2026-04-26 21:41 | -34.79190 | -56.51699 | 16835 ft | 344 kts | 96° |
| 2026-04-26 21:41 | -34.79343 | -56.48779 | 16834 ft | 345 kts | 96° |
| 2026-04-26 21:42 | -34.79491 | -56.45905 | 16828 ft | 345 kts | 96° |
| 2026-04-26 21:42 | -34.79642 | -56.42989 | 16831 ft | 345 kts | 96° |
| 2026-04-26 21:42 | -34.79792 | -56.40070 | 16830 ft | 346 kts | 96° |
| 2026-04-26 21:42 | -34.79942 | -56.37152 | 16829 ft | 346 kts | 96° |
| 2026-04-26 21:43 | -34.80092 | -56.34217 | 16830 ft | 346 kts | 96° |
| 2026-04-26 21:43 | -34.80240 | -56.31288 | 16829 ft | 347 kts | 96° |
| 2026-04-26 21:43 | -34.80386 | -56.28392 | 16828 ft | 347 kts | 96° |
| 2026-04-26 21:43 | -34.80533 | -56.25449 | 16825 ft | 348 kts | 95° |
| 2026-04-26 21:44 | -34.80681 | -56.22511 | 16825 ft | 348 kts | 96° |
| 2026-04-26 21:44 | -34.80829 | -56.19570 | 16824 ft | 348 kts | 95° |
| 2026-04-26 21:44 | -34.80974 | -56.16616 | 16825 ft | 349 kts | 95° |
| 2026-04-26 21:44 | -34.81118 | -56.13660 | 16822 ft | 350 kts | 95° |
| 2026-04-26 21:45 | -34.81264 | -56.10699 | 16823 ft | 350 kts | 95° |
| 2026-04-26 21:45 | -34.81692 | -56.01896 | 16825 ft | 351 kts | 95° |
| 2026-04-26 21:46 | -34.81833 | -55.98921 | 16825 ft | 352 kts | 95° |
| 2026-04-26 21:46 | -34.81974 | -55.95942 | 16825 ft | 352 kts | 95° |
| 2026-04-26 21:46 | -34.82113 | -55.93007 | 16829 ft | 351 kts | 95° |
| 2026-04-26 21:46 | -34.82253 | -55.90035 | 16828 ft | 351 kts | 95° |
| 2026-04-26 21:47 | -34.82393 | -55.87074 | 16819 ft | 346 kts | 95° |
| 2026-04-26 21:47 | -34.82532 | -55.84170 | 16815 ft | 340 kts | 95° |
| 2026-04-26 21:47 | -34.82661 | -55.81318 | 16806 ft | 333 kts | 95° |
| 2026-04-26 21:47 | -34.82787 | -55.78557 | 16803 ft | 327 kts | 95° |
| 2026-04-26 21:48 | -34.82909 | -55.75818 | 16798 ft | 319 kts | 95° |
| 2026-04-26 21:48 | -34.83039 | -55.73171 | 16536 ft | 306 kts | 96° |
| 2026-04-26 21:48 | -34.83167 | -55.70725 | 16032 ft | 279 kts | 96° |
| 2026-04-26 21:48 | -34.83260 | -55.68410 | 15524 ft | 271 kts | 95° |
| 2026-04-26 21:49 | -34.83348 | -55.66137 | 15035 ft | 264 kts | 95° |
| 2026-04-26 21:49 | -34.83450 | -55.63934 | 14550 ft | 257 kts | 96° |
| 2026-04-26 21:49 | -34.83546 | -55.61868 | 14100 ft | 249 kts | 96° |
| 2026-04-26 21:49 | -34.83637 | -55.59790 | 13645 ft | 242 kts | 96° |
| 2026-04-26 21:50 | -34.83724 | -55.57802 | 13126 ft | 235 kts | 96° |
| 2026-04-26 21:50 | -34.83783 | -55.56469 | 12767 ft | 232 kts | 96° |
| 2026-04-26 21:50 | -34.83728 | -55.53894 | 12091 ft | 229 kts | 77° |
| 2026-04-26 21:50 | -34.83276 | -55.52055 | 11591 ft | 225 kts | 70° |
| 2026-04-26 21:51 | -34.82815 | -55.50234 | 11096 ft | 223 kts | 74° |
| 2026-04-26 21:51 | -34.82437 | -55.48406 | 10613 ft | 221 kts | 76° |
| 2026-04-26 21:51 | -34.82053 | -55.46557 | 10151 ft | 239 kts | 74° |
| 2026-04-26 21:51 | -34.81635 | -55.44580 | 9691 ft | 241 kts | 76° |
| 2026-04-26 21:52 | -34.81235 | -55.42602 | 9186 ft | 240 kts | 75° |
| 2026-04-26 21:52 | -34.80823 | -55.40633 | 8688 ft | 239 kts | 75° |
| 2026-04-26 21:52 | -34.80409 | -55.38675 | 8187 ft | 238 kts | 75° |
| 2026-04-26 21:52 | -34.80004 | -55.36751 | 7701 ft | 237 kts | 75° |
| 2026-04-26 21:53 | -34.79596 | -55.34809 | 7217 ft | 236 kts | 75° |
| 2026-04-26 21:53 | -34.79190 | -55.32879 | 6741 ft | 235 kts | 75° |
| 2026-04-26 21:53 | -34.78785 | -55.30955 | 6250 ft | 234 kts | 75° |
| 2026-04-26 21:53 | -34.78379 | -55.29037 | 5773 ft | 233 kts | 76° |
| 2026-04-26 21:54 | -34.77979 | -55.27129 | 5284 ft | 232 kts | 75° |
| 2026-04-26 21:54 | -34.77580 | -55.25241 | 4821 ft | 229 kts | 75° |
| 2026-04-26 21:54 | -34.77202 | -55.23463 | 4776 ft | 211 kts | 75° |
| 2026-04-26 21:54 | -34.76814 | -55.21714 | 4770 ft | 218 kts | 73° |
| 2026-04-26 21:55 | -34.76423 | -55.19890 | 4770 ft | 224 kts | 76° |
| 2026-04-26 21:55 | -34.76061 | -55.18054 | 4389 ft | 223 kts | 77° |
| 2026-04-26 21:55 | -34.75695 | -55.16249 | 3899 ft | 221 kts | 75° |
| 2026-04-26 21:55 | -34.75315 | -55.14486 | 3409 ft | 207 kts | 74° |
| 2026-04-26 21:56 | -34.74960 | -55.12836 | 2909 ft | 196 kts | 74° |
| 2026-04-26 21:56 | -34.74630 | -55.11301 | 2763 ft | 180 kts | 73° |
| 2026-04-26 21:56 | -34.74277 | -55.09794 | 2766 ft | 190 kts | 72° |
| 2026-04-26 21:56 | -34.73945 | -55.08205 | 2768 ft | 195 kts | 75° |
| 2026-04-26 21:57 | -34.73619 | -55.06610 | 2770 ft | 199 kts | 75° |
| 2026-04-26 21:57 | -34.73275 | -55.04970 | 2775 ft | 200 kts | 74° |
| 2026-04-26 21:57 | -34.72924 | -55.03329 | 2776 ft | 200 kts | 73° |
| 2026-04-26 21:57 | -34.72592 | -55.01744 | 2772 ft | 187 kts | 73° |
| 2026-04-26 21:58 | -34.72269 | -55.00241 | 2764 ft | 181 kts | 73° |
| 2026-04-26 21:58 | -34.71950 | -54.98777 | 2770 ft | 179 kts | 73° |
| 2026-04-26 21:58 | -34.71648 | -54.97344 | 2765 ft | 173 kts | 73° |
| 2026-04-26 21:58 | -34.71359 | -54.95910 | 2761 ft | 176 kts | 84° |
| 2026-04-26 21:59 | -34.71524 | -54.94492 | 2773 ft | 170 kts | 120° |
| 2026-04-26 21:59 | -34.72116 | -54.93317 | 2766 ft | 156 kts | 149° |
| 2026-04-26 21:59 | -34.72950 | -54.92579 | 2770 ft | 142 kts | 173° |
| 2026-04-26 21:59 | -34.73863 | -54.92211 | 2782 ft | 137 kts | 181° |
| 2026-04-26 22:00 | -34.74775 | -54.91854 | 2786 ft | 141 kts | 179° |
| 2026-04-26 22:00 | -34.75719 | -54.91485 | 2786 ft | 142 kts | 180° |
| 2026-04-26 22:00 | -34.76662 | -54.91118 | 2785 ft | 141 kts | 180° |
| 2026-04-26 22:00 | -34.77584 | -54.90761 | 2786 ft | 141 kts | 180° |
| 2026-04-26 22:01 | -34.78521 | -54.90400 | 2780 ft | 141 kts | 180° |
| 2026-04-26 22:01 | -34.79429 | -54.90248 | 2777 ft | 122 kts | 206° |
| 2026-04-26 22:01 | -34.80174 | -54.90597 | 2777 ft | 109 kts | 225° |
| 2026-04-26 22:01 | -34.80684 | -54.91217 | 2827 ft | 98 kts | 243° |
| 2026-04-26 22:02 | -34.80944 | -54.91940 | 2950 ft | 90 kts | 256° |
| 2026-04-26 22:02 | -34.81069 | -54.92437 | 2896 ft | 96 kts | 254° |
| 2026-04-26 22:02 | -34.81338 | -54.93467 | 2709 ft | 95 kts | 255° |
| 2026-04-26 22:02 | -34.81536 | -54.94217 | 2569 ft | 94 kts | 255° |
| 2026-04-26 22:03 | -34.81737 | -54.94977 | 2442 ft | 94 kts | 255° |
| 2026-04-26 22:03 | -34.81936 | -54.95733 | 2314 ft | 93 kts | 255° |
| 2026-04-26 22:03 | -34.82133 | -54.96483 | 2212 ft | 91 kts | 255° |
| 2026-04-26 22:03 | -34.82323 | -54.97213 | 2083 ft | 90 kts | 254° |
| 2026-04-26 22:04 | -34.82517 | -54.97944 | 1964 ft | 92 kts | 254° |
| 2026-04-26 22:04 | -34.82710 | -54.98683 | 1838 ft | 93 kts | 253° |
| 2026-04-26 22:04 | -34.82908 | -54.99431 | 1720 ft | 93 kts | 254° |
| 2026-04-26 22:04 | -34.83099 | -55.00153 | 1610 ft | 76 kts | 253° |
| 2026-04-26 22:05 | -34.83273 | -55.00748 | 1501 ft | 75 kts | 252° |
| 2026-04-26 22:05 | -34.83430 | -55.01349 | 1391 ft | 75 kts | 252° |
| 2026-04-26 22:05 | -34.83588 | -55.01957 | 1282 ft | 77 kts | 253° |
| 2026-04-26 22:05 | -34.83750 | -55.02582 | 1177 ft | 77 kts | 252° |
| 2026-04-26 22:06 | -34.83920 | -55.03221 | 1072 ft | 82 kts | 253° |
| 2026-04-26 22:06 | -34.84093 | -55.03883 | 951 ft | 81 kts | 258° |
| 2026-04-26 22:06 | -34.84253 | -55.04526 | 839 ft | 78 kts | 254° |
| 2026-04-26 22:06 | -34.84421 | -55.05155 | 735 ft | 81 kts | 255° |
| 2026-04-26 22:07 | -34.84592 | -55.05820 | 629 ft | 83 kts | 256° |
| 2026-04-26 22:07 | -34.84777 | -55.06494 | 529 ft | 84 kts | 253° |
| 2026-04-26 22:07 | -34.84921 | -55.07185 | 432 ft | 85 kts | 250° |
| 2026-04-26 22:07 | -34.85036 | -55.07644 | 337 ft | 87 kts | 252° |
| 2026-04-26 22:08 | -34.85280 | -55.08518 | 203 ft | 77 kts | 252° |
| 2026-04-26 22:08 | -34.85444 | -55.09143 | 112 ft | 79 kts | 255° |
| 2026-04-26 22:08 | -34.85609 | -55.09723 | 103 ft | 57 kts | 256° |
| 2026-04-26 22:08 | -34.85662 | -55.09956 | 96 ft | 4 kts | 183° |
| 2026-04-26 22:09 | -34.85721 | -55.09893 | 96 ft | 23 kts | 161° |
| 2026-04-26 22:09 | -34.85864 | -55.09837 | 95 ft | 13 kts | 158° |
| 2026-04-26 22:09 | -34.85884 | -55.09821 | 95 ft | 0 kts | 137° |
| 2026-04-26 22:09 | -34.85882 | -55.09784 | 95 ft | 12 kts | 69° |
| 2026-04-26 22:10 | -34.85874 | -55.09755 | 95 ft | 0 kts | 75° |
| 2026-04-26 22:10 | -34.85903 | -55.09745 | 95 ft | 8 kts | 225° |
| 2026-04-26 22:10 | -34.85911 | -55.09773 | 95 ft | 0 kts | 252° |